Time;durP1;ratioP1;P1;durP2;ratioP2;P2;SDS_P1;SDS_P2;PMS_P1;PMS_P2;Temp;Humidity;BMP_temperature;BMP_pressure;BME280_temperature;BME280_humidity;BME280_pressure;Samples;Min_cycle;Max_cycle;Signal;HPM_P1;HPM_P2
2022/07/02 00:00:01;;;;;;;2.70;2.50;;;;;;;12.91;100.00;97089.94;5031699;28;101978;-64
2022/07/02 00:02:43;;;;;;;3.27;2.90;;;;;;;12.89;100.00;97086.69;5028963;27;102215;-64
2022/07/02 00:05:14;;;;;;;3.30;3.00;;;;;;;12.86;100.00;97082.66;5031644;28;103141;-64
2022/07/02 00:07:41;;;;;;;2.87;2.50;;;;;;;12.88;100.00;97087.75;5032136;28;101734;-64
2022/07/02 00:10:11;;;;;;;4.50;2.90;;;;;;;12.89;100.00;97084.00;5030708;28;105125;-64
2022/07/02 00:12:38;;;;;;;3.60;2.67;;;;;;;12.89;100.00;97086.69;5031358;28;102510;-64
2022/07/02 00:15:07;;;;;;;3.00;2.80;;;;;;;12.88;100.00;97080.56;5035046;28;101827;-64
2022/07/02 00:17:34;;;;;;;3.30;3.10;;;;;;;12.64;100.00;97078.34;5031364;28;102810;-64
2022/07/02 00:20:03;;;;;;;3.47;3.17;;;;;;;12.72;100.00;97080.59;5031886;28;102216;-64
2022/07/02 00:22:32;;;;;;;3.10;2.80;;;;;;;12.63;100.00;97090.06;5031262;27;102309;-64
2022/07/02 00:24:59;;;;;;;2.87;2.47;;;;;;;12.60;100.00;97088.69;5031160;28;102584;-64
2022/07/02 00:27:31;;;;;;;3.17;2.87;;;;;;;12.56;100.00;97089.44;5031418;28;101890;-64
2022/07/02 00:30:00;;;;;;;3.43;3.13;;;;;;;12.60;100.00;97086.03;5031785;28;102385;-64
2022/07/02 00:32:29;;;;;;;6.03;5.00;;;;;;;12.58;100.00;97090.81;5030792;27;103078;-64
2022/07/02 00:34:58;;;;;;;5.00;4.60;;;;;;;12.55;100.00;97083.31;5029907;28;102005;-64
2022/07/02 00:37:27;;;;;;;13.10;5.13;;;;;;;12.49;100.00;97094.94;5032758;28;105268;-64
2022/07/02 00:39:54;;;;;;;21.00;5.60;;;;;;;12.40;100.00;97098.28;5031290;28;101808;-64
2022/07/02 00:42:22;;;;;;;4.87;4.47;;;;;;;12.37;100.00;97096.09;5031521;28;102514;-64
2022/07/02 00:44:51;;;;;;;7.43;5.30;;;;;;;12.35;100.00;97093.69;5030572;27;102473;-64
2022/07/02 00:47:20;;;;;;;9.13;5.90;;;;;;;12.33;100.00;97101.09;5031467;28;101731;-64
2022/07/02 00:49:48;;;;;;;6.33;5.07;;;;;;;12.42;100.00;97102.31;5031161;27;102342;-64
2022/07/02 00:52:15;;;;;;;10.60;5.40;;;;;;;12.42;100.00;97098.84;5029150;28;103958;-64
2022/07/02 00:54:42;;;;;;;5.60;5.20;;;;;;;12.39;100.00;97099.31;5030845;27;102117;-64
2022/07/02 00:57:09;;;;;;;8.90;5.43;;;;;;;12.29;100.00;97100.00;5031127;27;102422;-64
2022/07/02 00:59:37;;;;;;;13.50;5.47;;;;;;;12.32;100.00;97096.81;5033384;27;101784;-64
2022/07/02 01:02:08;;;;;;;6.43;5.80;;;;;;;12.36;100.00;97097.13;5029653;28;105557;-64
2022/07/02 01:04:36;;;;;;;5.70;5.20;;;;;;;12.44;100.00;97096.75;5028920;28;104133;-64
2022/07/02 01:07:05;;;;;;;7.50;6.70;;;;;;;12.47;100.00;97093.56;5030961;27;101818;-64
2022/07/02 01:12:23;;;;;;;9.03;6.10;;;;;;;12.50;100.00;97099.25;5030467;27;102766;-64
2022/07/02 01:14:51;;;;;;;6.23;5.73;;;;;;;12.47;100.00;97098.91;5030717;28;102346;-64
2022/07/02 01:17:21;;;;;;;17.60;6.60;;;;;;;12.46;100.00;97095.44;5029343;28;105685;-64
2022/07/02 01:19:48;;;;;;;12.57;6.63;;;;;;;12.49;100.00;97096.81;5033671;27;102559;-64
2022/07/02 01:22:19;;;;;;;10.03;6.97;;;;;;;12.54;100.00;97088.88;5030678;28;102576;-64
2022/07/02 01:24:48;;;;;;;6.63;6.13;;;;;;;12.54;100.00;97096.88;5030298;28;102648;-64
2022/07/02 01:27:16;;;;;;;6.60;6.00;;;;;;;12.59;100.00;97091.63;5030615;27;101820;-64
2022/07/02 01:29:43;;;;;;;6.43;5.93;;;;;;;12.62;100.00;97086.59;5028935;28;105178;-64
2022/07/02 01:32:11;;;;;;;6.93;6.33;;;;;;;12.70;100.00;97085.38;5030027;28;103243;-64
2022/07/02 01:34:40;;;;;;;7.23;6.63;;;;;;;12.72;100.00;97085.94;5029892;27;101823;-64
2022/07/02 01:37:12;;;;;;;8.13;7.33;;;;;;;12.82;100.00;97081.50;5028945;28;103703;-64
2022/07/02 01:39:43;;;;;;;7.50;6.90;;;;;;;12.85;100.00;97083.72;5028447;28;105522;-64
2022/07/02 01:42:11;;;;;;;9.20;8.20;;;;;;;12.92;100.00;97080.88;5033999;27;101988;-64
2022/07/02 01:44:39;;;;;;;8.47;7.67;;;;;;;12.95;100.00;97088.38;5029723;28;102698;-64
2022/07/02 01:47:08;;;;;;;9.50;8.50;;;;;;;12.96;100.00;97076.66;5030453;28;101740;-64
2022/07/02 01:49:36;;;;;;;10.67;8.50;;;;;;;12.92;100.00;97084.31;5028944;28;105109;-64
2022/07/02 01:52:03;;;;;;;7.70;7.03;;;;;;;12.88;100.00;97085.06;5029218;28;104311;-64
2022/07/02 01:54:31;;;;;;;7.47;6.77;;;;;;;12.88;100.00;97074.41;5030248;28;101835;-64
2022/07/02 01:57:01;;;;;;;8.33;7.53;;;;;;;12.97;100.00;97079.09;5030102;28;102917;-64
2022/07/02 01:59:29;;;;;;;8.83;7.93;;;;;;;13.02;100.00;97081.03;5027567;28;103916;-64
2022/07/02 02:01:56;;;;;;;8.90;8.03;;;;;;;13.01;100.00;97074.03;5030194;28;101830;-64
2022/07/02 02:04:23;;;;;;;9.03;8.13;;;;;;;13.07;100.00;97083.72;5032997;28;102396;-64
2022/07/02 02:06:51;;;;;;;8.87;8.07;;;;;;;13.10;100.00;97075.25;5030126;28;101845;-64
2022/07/02 02:09:18;;;;;;;8.13;7.13;;;;;;;13.07;100.00;97078.38;5028611;28;106968;-64
2022/07/02 02:11:45;;;;;;;7.50;6.80;;;;;;;13.03;100.00;97080.75;5029361;28;102670;-64
2022/07/02 02:14:14;;;;;;;6.90;6.40;;;;;;;12.99;100.00;97082.34;5030075;28;101863;-64
2022/07/02 02:16:41;;;;;;;6.70;6.20;;;;;;;12.97;100.00;97083.63;5029936;28;102392;-64
2022/07/02 02:19:08;;;;;;;8.63;7.83;;;;;;;13.03;100.00;97083.44;5029456;28;102789;-64
2022/07/02 02:21:35;;;;;;;7.47;6.87;;;;;;;13.07;100.00;97081.06;5029777;28;101843;-64
2022/07/02 02:24:02;;;;;;;8.90;8.10;;;;;;;13.06;100.00;97076.78;5028362;28;103757;-64
2022/07/02 02:26:29;;;;;;;8.20;7.40;;;;;;;13.09;100.00;97084.31;5031368;28;105521;-64
2022/07/02 02:28:56;;;;;;;8.10;7.40;;;;;;;13.14;100.00;97079.81;5029822;28;102375;-64
2022/07/02 02:31:26;;;;;;;7.57;6.97;;;;;;;13.18;100.00;97075.59;5029068;28;102601;-64
2022/07/02 02:33:53;;;;;;;8.73;7.83;;;;;;;13.20;100.00;97088.72;5029652;27;101827;-64
2022/07/02 02:36:20;;;;;;;7.30;6.70;;;;;;;13.21;100.00;97084.97;5029819;28;102534;-64
2022/07/02 02:38:48;;;;;;;8.27;6.70;;;;;;;13.10;100.00;97091.25;5029091;28;103082;-64
2022/07/02 02:41:15;;;;;;;7.37;6.67;;;;;;;13.09;100.00;97095.78;5029741;27;101842;-64
2022/07/02 02:43:42;;;;;;;8.27;7.50;;;;;;;13.04;100.00;97094.94;5028336;28;105578;-64
2022/07/02 02:46:10;;;;;;;10.17;9.17;;;;;;;13.05;100.00;97092.00;5029894;28;102536;-64
2022/07/02 02:48:39;;;;;;;8.27;7.47;;;;;;;13.03;100.00;97098.66;5036643;27;102037;-64
2022/07/02 02:51:08;;;;;;;8.23;7.47;;;;;;;13.11;100.00;97092.88;5030842;28;105328;-64
2022/07/02 02:53:36;;;;;;;7.70;7.00;;;;;;;13.14;100.00;97095.06;5031738;28;102053;-64
2022/07/02 02:56:04;;;;;;;7.77;7.07;;;;;;;13.10;100.00;97099.28;5033193;28;102994;-64
2022/07/02 02:58:31;;;;;;;7.77;6.70;;;;;;;13.06;100.00;97101.63;5031602;28;104605;-64
2022/07/02 03:00:58;;;;;;;7.73;6.93;;;;;;;13.06;100.00;97098.97;5032933;27;101833;-64
2022/07/02 03:03:25;;;;;;;8.63;7.83;;;;;;;13.09;100.00;97098.44;5033028;27;102257;-64
2022/07/02 03:05:54;;;;;;;9.60;8.70;;;;;;;13.09;100.00;97098.44;5032033;28;102608;-64
2022/07/02 03:08:22;;;;;;;8.93;8.03;;;;;;;13.12;100.00;97097.16;5036439;27;101834;-64
2022/07/02 03:10:50;;;;;;;9.13;8.23;;;;;;;13.12;100.00;97097.16;5032289;28;102554;-64
2022/07/02 03:13:17;;;;;;;8.20;7.40;;;;;;;13.13;100.00;97104.13;5032865;27;101837;-64
2022/07/02 03:15:44;;;;;;;8.73;8.03;;;;;;;13.18;100.00;97106.84;5031337;28;105118;-64
2022/07/02 03:18:12;;;;;;;8.60;7.90;;;;;;;13.14;100.00;97108.41;5030498;28;103782;-64
2022/07/02 03:20:39;;;;;;;9.13;8.33;;;;;;;13.14;100.00;97103.84;5030893;28;101910;-64
2022/07/02 03:23:08;;;;;;;10.20;9.20;;;;;;;13.10;100.00;97104.59;5031390;28;103626;-64
2022/07/02 03:25:35;;;;;;;11.43;7.93;;;;;;;13.02;100.00;97099.72;5032034;27;103153;-64
2022/07/02 03:28:02;;;;;;;9.77;8.77;;;;;;;12.74;100.00;97105.97;5030878;28;101856;-64
2022/07/02 03:30:30;;;;;;;9.30;8.40;;;;;;;12.68;100.00;97106.97;5033853;28;105640;-64
2022/07/02 03:32:57;;;;;;;12.03;10.10;;;;;;;12.60;100.00;97110.03;5032455;28;101963;-64
2022/07/02 03:35:24;;;;;;;14.77;10.27;;;;;;;12.61;100.00;97116.19;5030103;28;103577;-64
2022/07/02 03:37:51;;;;;;;13.03;10.43;;;;;;;12.71;100.00;97111.78;5030651;27;102645;-64
2022/07/02 03:40:20;;;;;;;10.70;9.60;;;;;;;12.86;100.00;97120.03;5031331;28;102188;-64
2022/07/02 03:42:47;;;;;;;10.87;9.77;;;;;;;12.89;100.00;97116.03;5032222;27;102538;-64
2022/07/02 03:45:14;;;;;;;9.57;8.67;;;;;;;12.91;100.00;97120.09;5031804;28;103150;-64
2022/07/02 03:47:41;;;;;;;12.77;9.80;;;;;;;12.94;100.00;97116.94;5030760;28;101919;-64
2022/07/02 03:50:09;;;;;;;12.97;10.87;;;;;;;12.90;100.00;97120.31;5030795;28;103534;-64
2022/07/02 03:52:39;;;;;;;15.30;8.77;;;;;;;12.78;100.00;97122.31;5034025;28;103093;-64
2022/07/02 03:55:07;;;;;;;9.70;8.80;;;;;;;12.80;100.00;97121.00;5032097;27;102229;-64
2022/07/02 03:57:36;;;;;;;10.97;9.90;;;;;;;12.83;100.00;97115.19;5029375;27;105309;-64
2022/07/02 04:00:04;;;;;;;9.60;8.70;;;;;;;12.83;100.00;97119.72;5031727;28;101924;-64
2022/07/02 04:02:39;;;;;;;10.20;9.23;;;;;;;12.91;100.00;97128.09;5028710;28;102177;-64
2022/07/02 04:05:08;;;;;;;10.20;9.20;;;;;;;13.03;100.00;97122.69;5031438;28;102642;-64
2022/07/02 04:07:35;;;;;;;25.40;9.70;;;;;;;13.02;100.00;97129.88;5032267;28;102129;-63
2022/07/02 04:10:02;;;;;;;9.50;8.60;;;;;;;13.07;100.00;97126.44;5030410;28;106185;-64
2022/07/02 04:12:29;;;;;;;11.53;10.43;;;;;;;13.19;100.00;97124.50;5031302;28;102609;-64
2022/07/02 04:14:57;;;;;;;17.03;10.40;;;;;;;13.16;100.00;97131.13;5032676;28;101877;-64
2022/07/02 04:17:24;;;;;;;10.07;9.17;;;;;;;13.22;100.00;97129.31;5030458;28;102559;-64
2022/07/02 04:19:52;;;;;;;10.83;9.83;;;;;;;13.25;100.00;97113.59;5031698;27;101834;-64
2022/07/02 04:22:19;;;;;;;12.87;10.40;;;;;;;13.33;100.00;97117.69;5030346;28;105655;-64
2022/07/02 04:24:46;;;;;;;17.33;13.07;;;;;;;13.31;100.00;97117.16;5028813;28;105429;-64
2022/07/02 04:27:13;;;;;;;16.10;12.83;;;;;;;13.22;100.00;97124.81;5030929;28;101871;-64
2022/07/02 04:29:40;;;;;;;23.90;13.77;;;;;;;12.97;100.00;97121.00;5030406;28;102455;-64
2022/07/02 04:32:10;;;;;;;23.10;14.50;;;;;;;12.85;100.00;97113.06;5028653;28;105646;-64
2022/07/02 04:34:37;;;;;;;14.87;11.50;;;;;;;12.88;100.00;97112.59;5029152;28;101959;-64
2022/07/02 04:37:04;;;;;;;18.43;11.83;;;;;;;12.70;100.00;97115.53;5032035;28;103546;-64
2022/07/02 04:39:31;;;;;;;17.40;12.03;;;;;;;12.87;100.00;97105.59;5028664;28;101868;-64
2022/07/02 04:41:59;;;;;;;17.10;11.80;;;;;;;12.81;100.00;97122.63;5030499;27;102923;-64
2022/07/02 04:44:26;;;;;;;27.53;11.40;;;;;;;12.77;100.00;97116.19;5030072;28;102856;-64
2022/07/02 04:46:55;;;;;;;24.13;10.97;;;;;;;12.64;100.00;97126.41;5030293;28;101807;-64
2022/07/02 04:49:24;;;;;;;20.67;11.57;;;;;;;12.71;100.00;97117.13;5030184;27;102456;-64
2022/07/02 04:51:51;;;;;;;24.63;9.93;;;;;;;12.71;100.00;97129.69;5029935;27;103140;-64
2022/07/02 04:54:18;;;;;;;43.90;9.97;;;;;;;12.54;100.00;97129.69;5031301;28;101941;-64
2022/07/02 04:56:48;;;;;;;10.83;9.17;;;;;;;12.69;100.00;97129.09;5029980;28;102626;-64
2022/07/02 04:59:16;;;;;;;9.47;8.47;;;;;;;12.90;100.00;97125.66;5030616;28;104522;-64
2022/07/02 05:01:43;;;;;;;9.77;8.77;;;;;;;13.02;100.00;97124.53;5029584;28;105030;-64
2022/07/02 05:04:12;;;;;;;11.47;8.97;;;;;;;13.09;100.00;97127.03;5029226;28;103667;-64
2022/07/02 05:06:41;;;;;;;10.03;9.10;;;;;;;13.18;100.00;97123.69;5030932;27;101832;-64
2022/07/02 05:09:07;;;;;;;11.13;9.10;;;;;;;13.30;100.00;97126.22;5028647;27;103668;-64
2022/07/02 05:11:34;;;;;;;9.13;8.23;;;;;;;13.35;100.00;97128.97;5028889;28;105872;-64
2022/07/02 05:14:01;;;;;;;9.53;8.53;;;;;;;13.48;100.00;97129.38;5030928;28;101855;-64
2022/07/02 05:16:29;;;;;;;9.30;8.30;;;;;;;13.63;100.00;97131.41;5030912;28;102560;-64
2022/07/02 05:18:56;;;;;;;8.80;7.83;;;;;;;13.63;100.00;97140.22;5033853;28;102745;-64
2022/07/02 05:21:23;;;;;;;5.93;5.33;;;;;;;13.34;100.00;97128.16;5030928;27;102308;-64
2022/07/02 05:23:52;;;;;;;4.63;4.33;;;;;;;13.10;100.00;97131.31;5030084;28;102530;-64
2022/07/02 05:26:20;;;;;;;5.20;4.13;;;;;;;13.15;100.00;97131.38;5030408;28;101926;-64
2022/07/02 05:28:47;;;;;;;4.33;4.03;;;;;;;13.19;100.00;97122.63;5029310;28;105269;-64
2022/07/02 05:31:14;;;;;;;4.53;4.23;;;;;;;13.35;100.00;97123.63;5029891;27;102566;-64
2022/07/02 05:33:41;;;;;;;3.80;3.60;;;;;;;13.60;100.00;97124.72;5030578;28;101938;-64
2022/07/02 05:36:08;;;;;;;4.20;3.90;;;;;;;13.75;100.00;97124.06;5030699;28;102379;-64
2022/07/02 05:38:35;;;;;;;4.33;4.00;;;;;;;13.86;100.00;97123.91;5029244;28;102897;-64
2022/07/02 05:41:04;;;;;;;3.80;3.60;;;;;;;13.96;100.00;97118.63;5032595;28;102053;-64
2022/07/02 05:43:31;;;;;;;3.80;3.60;;;;;;;13.98;100.00;97124.56;5029672;28;103142;-64
2022/07/02 05:46:08;;;;;;;3.80;3.60;;;;;;;14.05;100.00;97124.31;5029000;28;101957;-63
2022/07/02 05:48:42;;;;;;;7.20;4.40;;;;;;;14.26;100.00;97126.16;5029306;28;105745;-64
2022/07/02 05:51:09;;;;;;;3.20;3.00;;;;;;;14.24;100.00;97122.94;5029798;28;102908;-63
2022/07/02 05:53:37;;;;;;;3.57;3.27;;;;;;;14.36;100.00;97120.88;5029217;28;101855;-63
2022/07/02 05:56:06;;;;;;;3.10;2.90;;;;;;;14.28;100.00;97119.47;5029277;28;105168;-63
2022/07/02 05:58:33;;;;;;;2.10;2.00;;;;;;;14.23;100.00;97124.00;5029212;28;101892;-64
2022/07/02 06:01:00;;;;;;;2.30;2.10;;;;;;;14.60;100.00;97127.50;5029193;28;101952;-63
2022/07/02 06:03:27;;;;;;;2.73;2.50;;;;;;;14.52;100.00;97127.97;5032057;28;105258;-63
2022/07/02 06:08:40;;;;;;;2.00;1.90;;;;;;;14.87;100.00;97138.91;5030585;27;102823;-63
2022/07/02 06:11:10;;;;;;;2.07;1.97;;;;;;;14.98;100.00;97129.88;5029836;28;102631;-63
2022/07/02 06:13:37;;;;;;;1.50;1.50;;;;;;;14.84;100.00;97128.72;5030578;27;101733;-63
2022/07/02 06:16:18;;;;;;;1.80;1.70;;;;;;;14.82;100.00;97126.28;5028633;28;105606;-63
2022/07/02 06:19:01;;;;;;;2.10;2.00;;;;;;;14.97;100.00;97118.34;5028157;28;103885;-64
2022/07/02 06:21:28;;;;;;;2.17;2.07;;;;;;;15.08;100.00;97128.06;5031805;28;101870;-64
2022/07/02 06:23:55;;;;;;;1.90;1.80;;;;;;;15.00;100.00;97127.75;5033750;28;102387;-65
2022/07/02 06:26:32;;;;;;;2.90;2.00;;;;;;;15.33;100.00;97135.44;5036499;27;104072;-65
2022/07/02 06:28:59;;;;;;;2.00;1.90;;;;;;;15.44;100.00;97134.41;5033795;28;102449;-65
2022/07/02 06:31:26;;;;;;;1.77;1.67;;;;;;;15.40;100.00;97139.47;5033053;27;102542;-65
2022/07/02 06:33:53;;;;;;;1.90;1.80;;;;;;;15.25;100.00;97131.34;5032299;28;101994;-65
2022/07/02 06:36:24;;;;;;;1.97;1.87;;;;;;;15.20;100.00;97134.00;5032175;28;105162;-65
2022/07/02 06:38:51;;;;;;;1.63;1.63;;;;;;;15.44;100.00;97137.09;5032873;28;103146;-65
2022/07/02 06:44:05;;;;;;;2.00;1.90;;;;;;;15.87;100.00;97134.00;5033588;27;102261;-65
2022/07/02 06:46:42;;;;;;;2.10;2.00;;;;;;;16.05;100.00;97134.28;5032890;28;102618;-65
2022/07/02 06:49:49;;;;;;;2.10;1.90;;;;;;;16.04;100.00;97137.22;5035548;28;101928;-65
2022/07/02 06:52:17;;;;;;;1.83;1.73;;;;;;;15.96;100.00;97127.81;5032915;28;102808;-65
2022/07/02 06:54:51;;;;;;;1.40;1.40;;;;;;;15.86;100.00;97130.50;5033423;28;102014;-65
2022/07/02 06:57:18;;;;;;;1.80;1.70;;;;;;;15.89;100.00;97124.59;5033331;28;102379;-65
2022/07/02 06:59:47;;;;;;;1.40;1.40;;;;;;;16.15;100.00;97134.31;5030884;28;105358;-64
2022/07/02 07:02:14;;;;;;;1.43;1.30;;;;;;;16.13;100.00;97131.06;5033053;28;101825;-64
2022/07/02 07:04:55;;;;;;;1.83;1.73;;;;;;;15.90;100.00;97133.44;5033084;28;102422;-64
2022/07/02 07:07:27;;;;;;;1.70;1.60;;;;;;;15.50;100.00;97133.34;5031169;28;104418;-64
2022/07/02 07:09:54;;;;;;;1.50;1.50;;;;;;;15.78;100.00;97125.66;5031717;28;101862;-64
2022/07/02 07:12:21;;;;;;;1.70;1.60;;;;;;;16.14;100.00;97126.53;5035937;28;102346;-64
2022/07/02 07:15:03;;;;;;;2.00;1.80;;;;;;;16.31;100.00;97129.75;5033133;27;101820;-64
2022/07/02 07:17:30;;;;;;;1.30;1.30;;;;;;;16.20;100.00;97122.75;5033145;27;102563;-64
2022/07/02 07:20:16;;;;;;;1.80;1.70;;;;;;;16.23;100.00;97122.22;5032547;28;103648;-64
2022/07/02 07:22:44;;;;;;;1.27;1.27;;;;;;;16.73;100.00;97114.97;5033167;27;101996;-64
2022/07/02 07:25:22;;;;;;;1.30;1.30;;;;;;;17.07;100.00;97117.84;5031480;28;103584;-64
2022/07/02 07:27:50;;;;;;;2.33;1.30;;;;;;;17.34;100.00;97121.78;5030874;28;105780;-64
2022/07/02 07:30:18;;;;;;;1.23;1.23;;;;;;;17.50;100.00;97117.19;5032794;27;101817;-64
2022/07/02 07:32:45;;;;;;;1.50;1.40;;;;;;;16.76;100.00;97121.69;5034618;27;102442;-64
2022/07/02 07:35:36;;;;;;;1.40;1.30;;;;;;;17.35;100.00;97109.16;5032861;28;101812;-64
2022/07/02 07:38:03;;;;;;;1.23;1.20;;;;;;;17.69;100.00;97113.59;5032945;28;101752;-64
2022/07/02 07:40:30;;;;;;;1.27;1.10;;;;;;;17.36;100.00;97106.19;5030480;28;104008;-64
2022/07/02 07:42:57;;;;;;;0.80;0.80;;;;;;;18.05;100.00;97103.41;5031251;28;102290;-65
2022/07/02 07:45:29;;;;;;;0.60;0.60;;;;;;;18.11;100.00;97096.91;5031253;28;105439;-65
2022/07/02 07:47:56;;;;;;;0.80;0.80;;;;;;;18.47;100.00;97098.28;5030653;28;104821;-65
2022/07/02 07:50:25;;;;;;;1.20;1.10;;;;;;;18.93;100.00;97100.25;5032105;28;101814;-65
2022/07/02 07:52:53;;;;;;;1.30;0.80;;;;;;;19.34;100.00;97092.53;5031035;28;105278;-65
2022/07/02 07:55:30;;;;;;;0.60;0.50;;;;;;;19.52;100.00;97083.66;5033663;28;104008;-65
2022/07/02 07:57:57;;;;;;;0.40;0.40;;;;;;;19.68;100.00;97082.38;5032101;28;102843;-65
2022/07/02 08:00:25;;;;;;;0.43;0.43;;;;;;;19.88;100.00;97080.16;5030048;28;105316;-65
2022/07/02 08:02:53;;;;;;;0.50;0.50;;;;;;;20.26;100.00;97080.97;5032280;28;101878;-65
2022/07/02 08:05:53;;;;;;;0.40;0.40;;;;;;;20.39;100.00;97075.59;5030759;28;105262;-65
2022/07/02 08:08:21;;;;;;;0.87;0.47;;;;;;;20.52;100.00;97074.88;5030027;28;105608;-65
2022/07/02 08:10:49;;;;;;;0.67;0.50;;;;;;;20.46;100.00;97075.22;5030738;28;101971;-65
2022/07/02 08:13:16;;;;;;;1.60;1.50;;;;;;;20.69;100.00;97066.97;5064592;27;105204;-65
2022/07/02 08:15:45;;;;;;;0.43;0.43;;;;;;;20.87;100.00;97065.31;5031394;28;102901;-65
2022/07/02 08:18:13;;;;;;;0.60;0.60;;;;;;;20.77;100.00;97065.50;5034062;28;101975;-65
2022/07/02 08:20:40;;;;;;;0.40;0.40;;;;;;;20.61;100.00;97056.06;5030942;28;103206;-65
2022/07/02 08:23:08;;;;;;;0.40;0.40;;;;;;;20.39;100.00;97058.59;5032219;27;101815;-65
2022/07/02 08:25:35;;;;;;;0.40;0.40;;;;;;;20.97;100.00;97054.31;5032033;27;102906;-65
2022/07/02 08:28:03;;;;;;;0.83;0.50;;;;;;;21.08;100.00;97051.13;5031144;28;101796;-65
2022/07/02 08:30:31;;;;;;;0.57;0.50;;;;;;;21.10;100.00;97050.81;5031756;27;101884;-65
2022/07/02 08:32:58;;;;;;;0.43;0.43;;;;;;;21.23;100.00;97052.72;5031962;28;103007;-65
2022/07/02 08:35:26;;;;;;;0.40;0.40;;;;;;;21.53;100.00;97055.59;5031383;28;103279;-65
2022/07/02 08:37:53;;;;;;;1.20;0.47;;;;;;;21.25;100.00;97048.59;5030154;28;102066;-65
2022/07/02 08:40:24;;;;;;;0.43;0.43;;;;;;;21.23;100.00;97050.00;5034551;28;102610;-65
2022/07/02 08:42:53;;;;;;;0.83;0.70;;;;;;;21.24;100.00;97047.00;5013729;28;102082;-65
2022/07/02 08:45:24;;;;;;;0.40;0.40;;;;;;;21.58;100.00;97043.88;5031587;28;102502;-65
2022/07/02 08:47:54;;;;;;;0.40;0.40;;;;;;;21.75;100.00;97047.53;5029670;28;105041;-65
2022/07/02 08:50:24;;;;;;;0.50;0.50;;;;;;;21.73;100.00;97048.97;5031482;28;101853;-65
2022/07/02 08:52:53;;;;;;;0.30;0.30;;;;;;;21.82;100.00;97044.44;5013472;28;105929;-65
2022/07/02 08:55:55;;;;;;;1.07;0.50;;;;;;;21.88;100.00;97048.63;5031030;28;102962;-65
2022/07/02 08:58:23;;;;;;;1.53;0.60;;;;;;;21.91;100.00;97043.38;5026355;27;104809;-65
2022/07/02 09:00:51;;;;;;;0.57;0.40;;;;;;;22.05;100.00;97032.50;5031138;28;102329;-65
2022/07/02 09:03:20;;;;;;;0.33;0.33;;;;;;;22.08;100.00;97031.91;5032828;28;103834;-65
2022/07/02 09:05:51;;;;;;;0.63;0.50;;;;;;;22.00;100.00;97027.19;5029995;28;105269;-65
2022/07/02 09:08:22;;;;;;;0.40;0.40;;;;;;;22.52;100.00;97032.72;5030815;28;103251;-65
2022/07/02 09:10:51;;;;;;;0.50;0.50;;;;;;;22.47;100.00;97023.91;5031369;28;101767;-65
2022/07/02 09:13:20;;;;;;;0.60;0.60;;;;;;;22.34;100.00;97016.63;5031352;28;102380;-65
2022/07/02 09:16:12;;;;;;;0.67;0.67;;;;;;;22.65;100.00;97028.28;5029307;28;105550;-65
2022/07/02 09:18:44;;;;;;;0.70;0.67;;;;;;;22.56;100.00;97019.34;5031372;28;101777;-65
2022/07/02 09:21:11;;;;;;;0.87;0.60;;;;;;;22.95;100.00;97017.41;5031103;28;102401;-65
2022/07/02 09:23:48;;;;;;;0.60;0.50;;;;;;;22.95;100.00;97020.13;5030451;28;102680;-65
2022/07/02 09:26:32;;;;;;;0.60;0.60;;;;;;;23.16;100.00;97018.47;5034707;28;101931;-65
2022/07/02 09:29:01;;;;;;;0.63;0.43;;;;;;;22.96;100.00;97018.25;5030497;27;103129;-65
2022/07/02 09:31:28;;;;;;;0.30;0.30;;;;;;;22.83;100.00;97013.72;5030963;28;101858;-65
2022/07/02 09:33:57;;;;;;;0.70;0.50;;;;;;;23.03;100.00;97008.53;5030413;27;104377;-65
2022/07/02 09:36:24;;;;;;;0.30;0.30;;;;;;;23.45;100.00;97007.06;5012372;28;105758;-65
2022/07/02 09:38:54;;;;;;;0.57;0.30;;;;;;;23.17;100.00;97013.84;5029532;28;101849;-65
2022/07/02 09:41:24;;;;;;;0.40;0.40;;;;;;;23.26;100.00;97014.72;5029473;28;106345;-65
2022/07/02 09:43:59;;;;;;;0.40;0.40;;;;;;;23.22;100.00;97011.03;5028782;28;105307;-65
2022/07/02 09:46:32;;;;;;;0.73;0.30;;;;;;;23.18;100.00;97004.63;5032713;28;101942;-65
2022/07/02 09:49:07;;;;;;;0.30;0.30;;;;;;;23.45;100.00;97001.63;5028793;28;106206;-65
2022/07/02 09:51:34;;;;;;;0.40;0.40;;;;;;;23.18;100.00;96993.75;5029185;28;101917;-65
2022/07/02 09:54:03;;;;;;;0.40;0.40;;;;;;;23.48;100.00;96996.38;5029181;28;105379;-65
2022/07/02 09:56:35;;;;;;;0.40;0.40;;;;;;;24.02;100.00;96992.25;5027778;28;105358;-65
2022/07/02 09:59:02;;;;;;;0.63;0.63;;;;;;;23.88;100.00;96983.47;5028519;28;101953;-65
2022/07/02 10:01:29;;;;;;;0.40;0.40;;;;;;;23.64;100.00;96989.34;5029093;28;104144;-65
2022/07/02 10:03:57;;;;;;;0.87;0.50;;;;;;;23.75;100.00;96989.84;5028586;28;105343;-65
2022/07/02 10:06:27;;;;;;;0.40;0.30;;;;;;;24.45;100.00;96995.69;5030507;28;101867;-65
2022/07/02 10:08:56;;;;;;;0.40;0.30;;;;;;;24.23;100.00;96980.41;5033340;28;102471;-65
2022/07/02 10:11:27;;;;;;;1.10;0.50;;;;;;;24.22;100.00;96994.31;5028505;28;101758;-65
2022/07/02 10:13:57;;;;;;;0.50;0.50;;;;;;;24.31;100.00;96985.00;5030431;28;102967;-65
2022/07/02 10:16:26;;;;;;;0.40;0.40;;;;;;;24.53;100.00;96992.19;5027852;28;106719;-65
2022/07/02 10:19:04;;;;;;;1.03;0.30;;;;;;;24.61;100.00;96975.88;5030492;28;101673;-65
2022/07/02 10:21:31;;;;;;;0.63;0.40;;;;;;;24.89;100.00;96976.22;5028798;28;105539;-65
2022/07/02 10:23:59;;;;;;;0.37;0.37;;;;;;;25.14;100.00;96970.66;5029337;28;103172;-65
2022/07/02 10:26:30;;;;;;;0.30;0.30;;;;;;;25.45;100.00;96967.63;5029949;27;101918;-65
2022/07/02 10:28:58;;;;;;;0.40;0.40;;;;;;;25.27;100.00;96961.47;5028806;28;105619;-65
2022/07/02 10:31:25;;;;;;;0.53;0.50;;;;;;;24.96;100.00;96962.91;5033063;28;102634;-65
2022/07/02 10:33:59;;;;;;;0.87;0.63;;;;;;;25.14;100.00;96969.84;5030266;27;102298;-65
2022/07/02 10:36:34;;;;;;;0.50;0.50;;;;;;;25.09;100.00;96959.16;5028033;28;103618;-65
2022/07/02 10:39:02;;;;;;;0.80;0.50;;;;;;;25.09;100.00;96967.31;5030276;28;101752;-65
2022/07/02 10:41:32;;;;;;;0.60;0.60;;;;;;;24.98;100.00;96963.38;5028666;28;103516;-65
2022/07/02 10:44:00;;;;;;;0.60;0.60;;;;;;;24.93;100.00;96960.84;5029640;27;102564;-65
2022/07/02 10:47:22;;;;;;;1.77;1.43;;;;;;;25.26;100.00;96953.63;5029979;28;101989;-64
2022/07/02 10:49:59;;;;;;;0.60;0.60;;;;;;;25.17;100.00;96950.16;5011801;28;106415;-65
2022/07/02 10:52:39;;;;;;;0.90;0.90;;;;;;;24.98;100.00;96947.84;5027890;28;106546;-67
2022/07/02 10:55:12;;;;;;;3.20;3.00;;;;;;;25.41;100.00;96953.06;5031752;28;102112;-67
2022/07/02 10:57:44;;;;;;;3.90;3.60;;;;;;;25.73;100.00;96942.22;5027629;28;105410;-68
2022/07/02 11:00:26;;;;;;;1.20;1.10;;;;;;;25.90;100.00;96947.53;5027948;28;101790;-65
2022/07/02 11:02:53;;;;;;;0.60;0.60;;;;;;;25.61;100.00;96949.56;5029893;28;102991;-65
2022/07/02 11:05:38;;;;;;;0.50;0.50;;;;;;;25.86;100.00;96940.34;5027701;28;105860;-65
2022/07/02 11:08:06;;;;;;;0.60;0.60;;;;;;;25.91;100.00;96938.25;4953173;28;101852;-65
2022/07/02 11:10:33;;;;;;;1.20;0.80;;;;;;;26.25;100.00;96928.94;4954288;28;105700;-65
2022/07/02 11:13:04;;;;;;;1.03;0.97;;;;;;;25.87;100.00;96920.94;4953606;28;105842;-63
2022/07/02 11:15:38;;;;;;;0.80;0.80;;;;;;;25.42;100.00;96921.97;4970844;28;102139;-64
2022/07/02 11:18:08;;;;;;;1.00;0.80;;;;;;;25.76;100.00;96922.50;4957147;28;105518;-64
2022/07/02 11:20:37;;;;;;;0.77;0.70;;;;;;;26.35;100.00;96917.59;4954335;28;102148;-63
2022/07/02 11:23:05;;;;;;;1.80;0.80;;;;;;;26.38;98.66;96922.38;4954298;28;106324;-65
2022/07/02 11:29:05;;;;;;;1.10;0.90;;;;;;;25.95;93.25;96914.66;4954276;28;101857;-64
2022/07/02 11:31:37;;;;;;;0.77;0.77;;;;;;;25.96;91.98;96908.06;4954104;28;105272;-64
2022/07/02 11:34:04;;;;;;;1.33;0.63;;;;;;;25.79;91.42;96904.69;4953493;28;105038;-64
2022/07/02 11:36:56;;;;;;;0.73;0.70;;;;;;;26.21;88.34;96892.59;4954144;28;102280;-64